Time;durP1;ratioP1;P1;durP2;ratioP2;P2;SDS_P1;SDS_P2;PMS_P1;PMS_P2;Temp;Humidity;BMP_temperature;BMP_pressure;BME280_temperature;BME280_humidity;BME280_pressure;Samples;Min_cycle;Max_cycle;Signal;HPM_P1;HPM_P2
2023/01/26 03:00:23;;;;;;;22.90;20.60;;;1.50;99.90;;;;;;6048126;23;20380;31
2023/01/26 03:02:56;;;;;;;21.97;19.63;;;1.50;99.90;;;;;;4902589;29;20466;-77
2023/01/26 03:05:24;;;;;;;22.30;20.10;;;1.40;99.90;;;;;;4909331;29;20565;-76
2023/01/26 03:07:52;;;;;;;22.70;20.30;;;1.40;99.90;;;;;;4907719;29;20459;-77
2023/01/26 03:10:23;;;;;;;22.27;20.13;;;1.50;99.90;;;;;;4907171;29;20488;-77
2023/01/26 03:12:52;;;;;;;22.00;20.00;;;1.50;99.90;;;;;;4887184;29;20835;-77
2023/01/26 03:29:06;;;;;;;23.00;20.83;;;1.50;99.90;;;;;;4892180;29;20448;-77
2023/01/26 03:31:33;;;;;;;23.93;21.53;;;1.40;99.90;;;;;;4887291;29;20231;-77
2023/01/26 03:34:02;;;;;;;24.27;21.90;;;1.40;99.90;;;;;;4885550;29;20550;-77
2023/01/26 03:36:29;;;;;;;23.27;21.00;;;1.50;99.90;;;;;;4892047;29;20204;-77
2023/01/26 03:38:57;;;;;;;24.23;21.63;;;1.40;99.90;;;;;;4904830;29;20485;-77
2023/01/26 03:57:55;;;;;;;24.93;22.43;;;1.60;99.90;;;;;;4872712;29;20457;-81
2023/01/26 04:00:24;;;;;;;24.93;22.33;;;1.60;99.90;;;;;;4875189;29;20852;-84
2023/01/26 04:08:25;;;;;;;23.30;21.00;;;1.60;99.90;;;;;;4902797;29;20498;-81
2023/01/26 04:10:58;;;;;;;24.13;21.63;;;1.60;99.90;;;;;;4878465;29;20487;-81
2023/01/26 04:21:44;;;;;;;23.47;21.13;;;1.60;99.90;;;;;;4877624;29;20472;-79
2023/01/26 04:24:21;;;;;;;24.13;21.73;;;1.60;99.90;;;;;;4882666;29;20452;-80
2023/01/26 04:26:48;;;;;;;24.60;22.03;;;1.60;99.90;;;;;;4886199;29;20461;-79
2023/01/26 04:29:20;;;;;;;23.50;21.10;;;1.60;99.90;;;;;;4905620;29;20508;-79
2023/01/26 04:31:47;;;;;;;22.90;20.73;;;1.60;99.90;;;;;;4888578;29;20478;-79
2023/01/26 04:34:18;;;;;;;25.07;22.43;;;1.60;99.90;;;;;;4891008;29;20483;-80
2023/01/26 04:36:46;;;;;;;25.03;22.43;;;1.60;99.90;;;;;;4888879;29;20451;-79
2023/01/26 04:39:15;;;;;;;24.63;22.20;;;1.60;99.90;;;;;;4884611;29;20491;-80
2023/01/26 04:41:46;;;;;;;24.83;22.33;;;1.60;99.90;;;;;;4891527;29;20855;-81
2023/01/26 04:44:15;;;;;;;24.73;22.27;;;1.60;99.90;;;;;;4905566;29;20454;-77
2023/01/26 04:46:42;;;;;;;26.20;23.50;;;1.60;99.90;;;;;;4891763;29;20457;-77
2023/01/26 04:49:13;;;;;;;25.63;23.03;;;1.70;99.90;;;;;;4906619;29;20458;-76
2023/01/26 04:51:40;;;;;;;25.90;23.30;;;1.70;99.90;;;;;;4884391;29;20472;-77
2023/01/26 04:54:08;;;;;;;24.37;21.87;;;1.70;99.90;;;;;;4892669;29;20851;-76
2023/01/26 04:56:39;;;;;;;22.43;20.23;;;1.60;99.90;;;;;;4888672;29;20457;-77
2023/01/26 04:59:07;;;;;;;22.80;20.70;;;1.50;99.90;;;;;;4891712;29;20479;-76
2023/01/26 05:01:37;;;;;;;23.03;20.93;;;1.40;99.90;;;;;;4904727;29;20475;-77
2023/01/26 05:04:06;;;;;;;23.23;20.93;;;1.40;99.90;;;;;;4888273;29;20834;-76
2023/01/26 05:06:35;;;;;;;23.43;21.23;;;1.50;99.90;;;;;;4891355;29;20537;-76
2023/01/26 05:09:01;;;;;;;23.27;21.03;;;1.50;99.90;;;;;;4891496;29;20454;-77
2023/01/26 05:11:33;;;;;;;22.30;20.10;;;1.40;99.90;;;;;;4893389;29;20526;-77
2023/01/26 05:14:06;;;;;;;21.40;19.23;;;1.50;99.90;;;;;;4905003;29;20477;-76
2023/01/26 05:16:56;;;;;;;24.43;21.90;;;1.50;99.90;;;;;;4891369;29;20452;-77
2023/01/26 05:19:28;;;;;;;22.27;20.17;;;1.50;99.90;;;;;;4889889;29;20452;-78
2023/01/26 05:22:12;;;;;;;24.03;21.73;;;1.50;99.90;;;;;;4905797;29;20576;-76
2023/01/26 05:24:41;;;;;;;24.50;22.23;;;1.50;99.90;;;;;;4888141;29;21002;-77
2023/01/26 05:27:24;;;;;;;22.73;20.43;;;1.40;99.90;;;;;;4907069;29;21004;-76
2023/01/26 05:29:59;;;;;;;23.00;20.80;;;1.40;99.90;;;;;;4892664;29;20526;-76
2023/01/26 05:32:26;;;;;;;23.23;20.93;;;1.40;99.90;;;;;;4888910;29;20472;-78
2023/01/26 05:34:53;;;;;;;25.10;22.60;;;1.40;99.90;;;;;;4888211;29;20450;-76
2023/01/26 05:37:20;;;;;;;24.60;22.20;;;1.40;99.90;;;;;;4908842;29;20450;-77
2023/01/26 05:39:47;;;;;;;24.67;21.90;;;1.40;99.90;;;;;;4895541;29;20463;-77
2023/01/26 05:42:14;;;;;;;24.23;21.80;;;1.40;99.90;;;;;;4897333;29;20480;-76
2023/01/26 05:45:05;;;;;;;24.27;21.97;;;1.30;99.90;;;;;;4891075;29;20464;-77
2023/01/26 05:47:33;;;;;;;23.90;21.60;;;1.30;99.90;;;;;;4893053;29;20464;-77
2023/01/26 05:50:00;;;;;;;23.23;20.83;;;1.30;99.90;;;;;;4890935;29;20489;-77
2023/01/26 05:52:30;;;;;;;25.43;22.73;;;1.30;99.90;;;;;;4889908;29;20578;-78
2023/01/26 05:54:57;;;;;;;23.67;21.37;;;1.40;99.90;;;;;;4903526;29;20452;-76
2023/01/26 05:57:25;;;;;;;23.87;21.67;;;1.40;99.90;;;;;;4886556;29;20456;-76
2023/01/26 05:59:59;;;;;;;24.97;22.40;;;1.40;99.90;;;;;;4885302;29;20494;-76
2023/01/26 06:02:27;;;;;;;24.93;22.20;;;1.40;99.90;;;;;;4890203;29;20484;-76
2023/01/26 06:04:54;;;;;;;25.63;23.23;;;1.40;99.90;;;;;;4894144;29;20450;-77
2023/01/26 06:07:21;;;;;;;25.90;23.20;;;1.40;99.90;;;;;;4892689;29;20461;-77
2023/01/26 06:10:08;;;;;;;24.33;21.80;;;1.40;99.90;;;;;;4888845;29;20795;-76
2023/01/26 06:13:00;;;;;;;25.27;22.70;;;1.30;99.90;;;;;;4889998;29;20534;-76
2023/01/26 06:15:53;;;;;;;24.77;22.27;;;1.30;99.90;;;;;;4885703;29;20475;-77
2023/01/26 06:18:26;;;;;;;25.27;22.60;;;1.40;99.90;;;;;;4891170;29;20455;-76
2023/01/26 06:20:59;;;;;;;25.00;22.40;;;1.30;99.90;;;;;;4888897;29;20477;-77
2023/01/26 06:23:26;;;;;;;24.30;21.70;;;1.30;99.90;;;;;;4889839;29;20507;-77
2023/01/26 06:25:59;;;;;;;25.90;22.67;;;1.30;99.90;;;;;;4892263;29;20467;-76
2023/01/26 06:28:26;;;;;;;26.37;23.57;;;1.30;99.90;;;;;;4887343;29;20460;-76
2023/01/26 06:30:53;;;;;;;27.17;23.10;;;1.30;99.90;;;;;;4886384;29;20483;-77
2023/01/26 06:33:21;;;;;;;25.50;22.63;;;1.20;99.90;;;;;;4905214;29;20492;-77
2023/01/26 06:35:49;;;;;;;24.50;22.00;;;1.20;99.90;;;;;;4890822;29;20449;-77
2023/01/26 06:38:16;;;;;;;23.67;21.30;;;1.20;99.90;;;;;;4906703;29;20460;-77
2023/01/26 06:40:44;;;;;;;25.67;23.03;;;1.20;99.90;;;;;;4904901;29;20489;-76
2023/01/26 06:43:11;;;;;;;23.83;21.27;;;1.00;99.90;;;;;;4891326;29;20506;-76
2023/01/26 06:45:37;;;;;;;23.63;21.20;;;1.00;99.90;;;;;;4887051;29;20830;-77
2023/01/26 06:48:05;;;;;;;23.60;21.13;;;1.10;99.90;;;;;;4891937;29;20456;-77
2023/01/26 06:50:33;;;;;;;22.93;20.57;;;1.00;99.90;;;;;;4888373;29;20455;-76
2023/01/26 06:53:12;;;;;;;24.87;22.27;;;1.10;99.90;;;;;;4888074;29;20449;-76
2023/01/26 06:55:51;;;;;;;26.13;23.30;;;1.10;99.90;;;;;;4887859;29;20548;-76
2023/01/26 06:58:36;;;;;;;25.13;22.33;;;1.10;99.90;;;;;;4884500;29;20511;-76
2023/01/26 07:01:26;;;;;;;26.67;23.80;;;1.20;99.90;;;;;;4889858;29;20519;-76
2023/01/26 07:03:54;;;;;;;27.20;23.50;;;1.10;99.90;;;;;;4891574;29;20449;-76
2023/01/26 07:06:21;;;;;;;25.07;22.47;;;1.10;99.90;;;;;;4891553;29;21045;-77
2023/01/26 07:08:49;;;;;;;26.30;23.40;;;1.10;99.90;;;;;;4891574;29;20520;-77
2023/01/26 07:11:16;;;;;;;24.67;21.80;;;1.10;99.90;;;;;;4890788;29;20483;-76
2023/01/26 07:13:43;;;;;;;25.77;23.00;;;1.10;99.90;;;;;;4888808;29;21013;-76
2023/01/26 07:16:12;;;;;;;26.63;23.03;;;1.10;99.90;;;;;;4884712;29;20464;-77
2023/01/26 07:18:39;;;;;;;28.73;23.97;;;1.10;99.90;;;;;;4887966;29;20490;-77
2023/01/26 07:21:09;;;;;;;25.40;22.77;;;1.10;99.90;;;;;;4889349;29;20987;-77
2023/01/26 07:23:36;;;;;;;25.67;23.07;;;1.10;99.90;;;;;;4891532;29;20456;-77
2023/01/26 07:26:05;;;;;;;25.00;22.47;;;1.10;99.90;;;;;;4890422;29;20444;-78
2023/01/26 07:28:33;;;;;;;24.70;22.30;;;1.10;99.90;;;;;;4893032;29;20872;-77
2023/01/26 07:31:00;;;;;;;25.07;22.43;;;1.10;99.90;;;;;;4890551;29;20479;-77
2023/01/26 07:33:28;;;;;;;25.33;22.93;;;1.10;99.90;;;;;;4880076;29;20560;-77
2023/01/26 07:35:56;;;;;;;27.80;23.20;;;1.20;99.90;;;;;;4887512;29;20500;-77
2023/01/26 07:38:24;;;;;;;24.17;21.63;;;1.20;99.90;;;;;;4893064;29;20559;-77
2023/01/26 07:40:51;;;;;;;23.97;21.37;;;1.20;99.90;;;;;;4889645;29;20993;-77
2023/01/26 07:43:19;;;;;;;23.67;21.27;;;1.20;99.90;;;;;;4892798;29;20474;-77
2023/01/26 07:45:50;;;;;;;25.30;22.57;;;1.20;99.90;;;;;;4888987;29;20536;-79
2023/01/26 07:48:17;;;;;;;26.20;23.20;;;1.20;99.90;;;;;;4889686;29;20544;-76
2023/01/26 07:50:46;;;;;;;23.93;21.47;;;1.20;99.90;;;;;;4889066;29;20487;-77
2023/01/26 07:53:15;;;;;;;26.07;23.20;;;1.20;99.90;;;;;;4909178;29;20513;-79
2023/01/26 07:55:43;;;;;;;27.53;23.73;;;1.20;99.90;;;;;;4890826;29;20459;-81
2023/01/26 07:58:09;;;;;;;23.80;21.23;;;1.20;99.90;;;;;;4891407;29;20440;-80
2023/01/26 08:00:38;;;;;;;24.97;22.27;;;1.20;99.90;;;;;;4885973;29;20526;-81
2023/01/26 08:03:06;;;;;;;26.37;22.13;;;1.20;99.90;;;;;;4884921;29;20484;-81
2023/01/26 08:05:34;;;;;;;25.87;23.07;;;1.20;99.90;;;;;;4881049;29;20439;-81
2023/01/26 08:08:01;;;;;;;24.60;21.90;;;1.20;99.90;;;;;;4897014;29;20950;-81
2023/01/26 08:10:30;;;;;;;24.77;21.47;;;1.10;99.90;;;;;;4881589;29;20438;-81
2023/01/26 08:12:58;;;;;;;24.53;21.57;;;1.20;99.90;;;;;;4884458;29;20502;-81
2023/01/26 08:15:25;;;;;;;24.37;21.87;;;1.10;99.90;;;;;;4891648;29;20504;-81
2023/01/26 08:17:53;;;;;;;23.63;21.07;;;1.20;99.90;;;;;;4897876;29;20497;-81
2023/01/26 08:20:20;;;;;;;25.57;21.07;;;1.10;99.90;;;;;;4888238;29;20447;-81
2023/01/26 08:22:47;;;;;;;25.40;21.97;;;1.00;99.90;;;;;;4889516;29;20467;-82
2023/01/26 08:25:14;;;;;;;23.33;20.93;;;1.00;99.90;;;;;;4905340;29;20586;-80
2023/01/26 08:27:41;;;;;;;27.10;23.27;;;1.00;99.90;;;;;;4904365;29;20456;-81
2023/01/26 08:30:09;;;;;;;27.73;23.17;;;1.10;99.90;;;;;;4881505;29;20478;-80
2023/01/26 08:32:36;;;;;;;25.43;22.83;;;1.00;99.90;;;;;;4887631;29;20484;-81
2023/01/26 08:35:05;;;;;;;23.80;21.30;;;0.90;99.90;;;;;;4890335;29;20539;-81
2023/01/26 08:37:32;;;;;;;26.47;22.07;;;1.00;99.90;;;;;;4893525;29;20518;-81
2023/01/26 08:39:59;;;;;;;25.30;21.67;;;1.10;99.90;;;;;;4892364;29;20457;-81
2023/01/26 08:42:26;;;;;;;23.63;20.83;;;1.10;99.90;;;;;;4882337;29;21100;-81
2023/01/26 08:44:53;;;;;;;23.23;20.90;;;1.10;99.90;;;;;;4883306;29;20442;-81
2023/01/26 08:47:20;;;;;;;23.93;21.33;;;1.20;99.90;;;;;;4895207;29;20459;-81
2023/01/26 08:49:46;;;;;;;23.33;20.73;;;1.20;99.90;;;;;;4887210;29;20456;-81
2023/01/26 08:52:15;;;;;;;23.57;21.17;;;1.20;99.90;;;;;;4887982;29;20856;-82
2023/01/26 08:54:42;;;;;;;23.87;20.27;;;1.10;99.90;;;;;;4883609;29;20520;-81
2023/01/26 08:57:09;;;;;;;24.60;21.20;;;1.10;99.90;;;;;;4903207;29;20460;-82
2023/01/26 08:59:35;;;;;;;22.07;19.97;;;1.20;99.90;;;;;;4902931;29;20961;-81
2023/01/26 09:02:02;;;;;;;23.13;20.70;;;1.10;99.90;;;;;;4895862;29;20521;-81
2023/01/26 09:04:29;;;;;;;22.97;20.57;;;1.10;99.90;;;;;;4888400;29;20453;-82
2023/01/26 09:06:56;;;;;;;22.70;20.43;;;1.10;99.90;;;;;;4883961;29;20483;-80
2023/01/26 09:09:24;;;;;;;22.70;20.30;;;1.10;99.90;;;;;;4887274;29;20468;-78
2023/01/26 09:11:54;;;;;;;22.63;20.20;;;1.20;99.90;;;;;;4884731;29;20862;-80
2023/01/26 09:14:30;;;;;;;24.60;19.70;;;1.20;99.90;;;;;;4891259;29;20485;-79
2023/01/26 09:16:57;;;;;;;22.80;20.57;;;1.30;99.90;;;;;;4889804;29;21013;-80
2023/01/26 09:19:23;;;;;;;22.77;20.50;;;1.40;99.90;;;;;;4885520;29;20476;-81
2023/01/26 09:21:53;;;;;;;22.77;20.47;;;1.30;99.90;;;;;;4885272;29;20545;-81
2023/01/26 09:24:19;;;;;;;22.27;20.10;;;1.40;99.90;;;;;;4905338;29;21044;-80
2023/01/26 09:26:48;;;;;;;22.97;20.50;;;1.40;99.90;;;;;;4888093;29;20442;-79
2023/01/26 09:29:15;;;;;;;23.03;20.63;;;1.40;99.90;;;;;;4904488;29;20458;-79
2023/01/26 09:31:42;;;;;;;21.70;19.47;;;1.50;99.90;;;;;;4886094;29;20475;-80
2023/01/26 09:34:09;;;;;;;21.73;19.73;;;1.40;99.90;;;;;;4889200;29;20479;-81
2023/01/26 09:36:36;;;;;;;21.80;19.60;;;1.40;99.90;;;;;;4884556;29;20227;-80
2023/01/26 09:39:02;;;;;;;22.67;20.37;;;1.50;99.90;;;;;;4891186;29;20459;-80
2023/01/26 09:41:47;;;;;;;22.13;19.97;;;1.50;99.90;;;;;;4888601;29;20473;-82
2023/01/26 09:44:20;;;;;;;22.97;20.70;;;1.50;99.90;;;;;;4889584;29;20501;-77
2023/01/26 09:47:05;;;;;;;22.93;20.57;;;1.60;99.90;;;;;;4890963;29;20825;-76
2023/01/26 09:49:44;;;;;;;22.53;20.13;;;1.60;99.90;;;;;;4896106;29;20454;-76
2023/01/26 09:52:17;;;;;;;22.60;20.50;;;1.60;99.90;;;;;;4890342;29;20649;-77
2023/01/26 09:54:49;;;;;;;22.77;20.37;;;1.70;99.90;;;;;;4888094;29;20631;-77
2023/01/26 09:57:19;;;;;;;22.50;20.40;;;1.70;99.90;;;;;;4884607;29;20827;-77
2023/01/26 09:59:53;;;;;;;22.63;20.33;;;1.70;99.90;;;;;;4885152;29;20673;-78
2023/01/26 10:02:29;;;;;;;23.10;20.63;;;1.60;99.90;;;;;;4889948;29;20475;-77
2023/01/26 10:05:00;;;;;;;22.23;20.00;;;1.60;99.90;;;;;;4886312;29;20662;-77
2023/01/26 10:07:27;;;;;;;21.13;19.03;;;1.70;99.90;;;;;;4887478;29;20433;-78
2023/01/26 10:09:55;;;;;;;21.47;19.33;;;1.70;99.90;;;;;;4884448;29;20457;-76
2023/01/26 10:12:27;;;;;;;20.90;18.80;;;1.60;99.90;;;;;;4887709;29;20229;-76
2023/01/26 10:15:00;;;;;;;22.00;19.70;;;1.70;99.90;;;;;;4886028;29;20860;-77
2023/01/26 10:17:31;;;;;;;20.67;18.77;;;1.60;99.90;;;;;;4887563;29;20458;-78
2023/01/26 10:20:04;;;;;;;20.87;18.87;;;1.60;99.90;;;;;;4900342;29;20241;-77
2023/01/26 10:22:38;;;;;;;21.43;19.43;;;1.70;99.90;;;;;;4876816;29;20477;-78
2023/01/26 10:25:14;;;;;;;20.57;18.47;;;1.70;99.90;;;;;;4882130;29;20454;-76
2023/01/26 10:27:42;;;;;;;21.00;19.07;;;1.80;99.90;;;;;;4884510;29;20850;-77
2023/01/26 10:30:15;;;;;;;21.00;18.90;;;1.80;99.90;;;;;;4887471;29;20253;-77
2023/01/26 10:32:43;;;;;;;20.40;18.40;;;1.80;99.90;;;;;;4888976;29;20806;-76
2023/01/26 10:35:17;;;;;;;20.67;18.87;;;1.80;99.90;;;;;;4902592;29;21072;-77
2023/01/26 10:37:44;;;;;;;20.20;18.17;;;1.60;99.90;;;;;;4885675;29;20203;-77
2023/01/26 10:40:12;;;;;;;19.93;18.17;;;1.60;99.90;;;;;;4882360;29;20233;-77
2023/01/26 10:42:40;;;;;;;21.00;18.97;;;1.60;99.90;;;;;;4884487;29;20481;-77
2023/01/26 10:45:33;;;;;;;21.43;19.53;;;1.60;99.90;;;;;;4887620;29;20942;-77
2023/01/26 10:48:06;;;;;;;20.90;18.90;;;1.60;99.90;;;;;;4884445;29;20541;-77
2023/01/26 10:50:33;;;;;;;20.77;18.40;;;1.60;99.90;;;;;;4893084;29;20205;-76
2023/01/26 10:53:02;;;;;;;19.73;17.93;;;1.70;99.90;;;;;;4901357;29;20491;-82
2023/01/26 10:55:31;;;;;;;19.77;17.90;;;1.70;99.90;;;;;;4888350;29;20513;-82
2023/01/26 10:57:58;;;;;;;21.27;19.17;;;1.70;99.90;;;;;;4886980;29;20475;-81
2023/01/26 11:00:29;;;;;;;19.93;18.07;;;1.70;99.90;;;;;;4879724;29;20520;-79
2023/01/26 11:03:06;;;;;;;20.30;18.60;;;1.70;99.90;;;;;;4889886;29;20444;-81
2023/01/26 11:05:33;;;;;;;19.17;17.57;;;1.70;99.90;;;;;;4879423;29;20520;-81
2023/01/26 11:08:02;;;;;;;19.93;18.23;;;1.60;99.90;;;;;;4883597;29;20481;-80
2023/01/26 11:10:32;;;;;;;19.63;17.90;;;1.50;99.90;;;;;;4887024;29;20444;-79
2023/01/26 11:13:15;;;;;;;19.20;17.47;;;1.50;99.90;;;;;;4897865;29;20461;-83
2023/01/26 11:15:44;;;;;;;20.40;18.40;;;1.60;99.90;;;;;;4880340;29;20472;-77
2023/01/26 11:18:31;;;;;;;19.93;17.93;;;1.50;99.90;;;;;;4884696;29;20457;-77
2023/01/26 11:21:03;;;;;;;20.63;18.73;;;1.50;99.90;;;;;;4881987;29;21069;-76
2023/01/26 11:23:43;;;;;;;21.20;19.03;;;1.50;99.90;;;;;;4885646;29;20445;-78
2023/01/26 11:26:31;;;;;;;21.37;19.37;;;1.50;99.90;;;;;;4886628;29;20440;-78
2023/01/26 11:29:09;;;;;;;21.40;19.30;;;1.50;99.90;;;;;;4882301;29;20472;-83
2023/01/26 11:31:51;;;;;;;21.30;19.23;;;1.50;99.90;;;;;;4863513;29;20461;-80
2023/01/26 11:34:29;;;;;;;20.40;18.40;;;1.40;99.90;;;;;;4903017;29;20459;-77
2023/01/26 11:37:14;;;;;;;19.50;17.80;;;1.40;99.90;;;;;;4900360;29;20444;-83
2023/01/26 11:39:47;;;;;;;21.20;19.17;;;1.40;99.90;;;;;;4900674;29;20519;-80
2023/01/26 11:42:25;;;;;;;20.87;18.83;;;1.40;99.90;;;;;;4901172;29;20533;-80
2023/01/26 11:45:08;;;;;;;22.23;20.10;;;1.40;99.90;;;;;;4886850;29;20442;-79
2023/01/26 11:47:46;;;;;;;22.20;20.07;;;1.50;99.90;;;;;;4883012;29;20452;-82
2023/01/26 11:50:28;;;;;;;20.80;19.00;;;1.50;99.90;;;;;;4894726;29;20512;-80
2023/01/26 11:53:14;;;;;;;20.60;18.80;;;1.50;99.90;;;;;;4882678;29;20861;-79
2023/01/26 11:55:58;;;;;;;20.03;18.30;;;1.50;99.90;;;;;;4869201;29;20474;-80
2023/01/26 11:58:32;;;;;;;20.23;18.43;;;1.40;99.90;;;;;;4892922;29;20503;-79
2023/01/26 12:01:02;;;;;;;21.43;19.43;;;1.40;99.90;;;;;;4887557;29;20482;-79
2023/01/26 12:03:38;;;;;;;20.77;18.77;;;1.40;99.90;;;;;;4885766;29;20464;-79
2023/01/26 12:06:14;;;;;;;20.40;18.53;;;1.40;99.90;;;;;;4889349;29;20470;-80
2023/01/26 12:08:45;;;;;;;20.53;18.63;;;1.50;99.90;;;;;;4884997;29;20448;-80
2023/01/26 12:11:25;;;;;;;19.90;18.07;;;1.50;99.90;;;;;;4893130;29;20545;-79
2023/01/26 12:13:59;;;;;;;20.97;19.10;;;1.50;99.90;;;;;;4882170;29;20448;-79
2023/01/26 12:16:35;;;;;;;20.17;18.27;;;1.60;99.90;;;;;;4890654;29;20492;-80
2023/01/26 12:19:12;;;;;;;19.97;18.27;;;1.60;99.90;;;;;;4882415;29;20629;-81
2023/01/26 12:21:44;;;;;;;26.33;20.13;;;1.60;99.90;;;;;;4881129;29;20461;-81
2023/01/26 12:24:19;;;;;;;23.27;20.73;;;1.50;99.90;;;;;;4901593;29;20454;-79
2023/01/26 12:26:49;;;;;;;23.17;20.40;;;1.40;99.90;;;;;;4905312;29;20493;-80
2023/01/26 12:29:22;;;;;;;21.57;19.47;;;1.30;99.90;;;;;;4888785;29;20639;-80
2023/01/26 12:31:55;;;;;;;23.03;20.63;;;1.20;99.90;;;;;;4889309;29;20492;-80
2023/01/26 12:34:26;;;;;;;22.10;19.63;;;1.20;99.90;;;;;;4893641;29;20448;-77
2023/01/26 12:37:18;;;;;;;22.23;20.03;;;1.20;99.90;;;;;;4883005;29;20752;-77
2023/01/26 12:39:48;;;;;;;20.87;19.03;;;1.10;99.90;;;;;;4896599;29;20476;-77
2023/01/26 12:42:29;;;;;;;22.37;20.07;;;1.10;99.90;;;;;;4891676;29;20465;-77
2023/01/26 12:45:00;;;;;;;21.50;19.43;;;1.20;99.90;;;;;;4880603;29;20848;-77
2023/01/26 12:47:33;;;;;;;20.37;18.57;;;1.10;99.90;;;;;;4887807;29;20488;-80
2023/01/26 12:50:03;;;;;;;20.47;18.27;;;1.10;99.90;;;;;;4894691;29;20492;-77
2023/01/26 12:52:37;;;;;;;21.17;19.07;;;1.10;99.90;;;;;;4886076;29;20465;-76
2023/01/26 12:55:12;;;;;;;21.43;19.43;;;1.10;99.90;;;;;;4888938;29;20448;-77
2023/01/26 12:57:44;;;;;;;20.80;18.83;;;1.10;99.90;;;;;;4885968;29;20465;-77
2023/01/26 13:00:21;;;;;;;19.63;17.63;;;1.00;99.90;;;;;;4910063;29;20521;-77
2023/01/26 13:02:52;;;;;;;21.27;19.17;;;1.10;99.90;;;;;;4889421;29;20525;-76
2023/01/26 13:05:28;;;;;;;21.97;19.97;;;1.20;99.90;;;;;;4896538;29;20946;-77
2023/01/26 13:07:57;;;;;;;20.67;18.77;;;1.20;99.90;;;;;;4904683;29;20465;-77
2023/01/26 13:10:26;;;;;;;21.50;19.43;;;1.10;99.90;;;;;;4891353;29;20479;-77
2023/01/26 13:12:56;;;;;;;19.97;18.07;;;1.10;99.90;;;;;;4891229;29;20456;-77
2023/01/26 13:15:24;;;;;;;20.07;18.17;;;1.10;99.90;;;;;;4888773;29;20514;-77
2023/01/26 13:17:54;;;;;;;21.23;19.23;;;1.20;99.90;;;;;;4892101;29;20945;-77
2023/01/26 13:20:49;;;;;;;20.77;18.83;;;1.30;99.90;;;;;;4884697;29;20481;-76
2023/01/26 13:23:44;;;;;;;20.20;18.10;;;1.20;99.90;;;;;;4889109;29;20935;-76
2023/01/26 13:26:18;;;;;;;19.33;17.60;;;1.10;99.90;;;;;;4894470;29;20440;-76
2023/01/26 13:28:46;;;;;;;19.80;17.93;;;1.10;99.90;;;;;;4888955;29;20468;-81
2023/01/26 13:31:28;;;;;;;19.47;17.67;;;1.20;99.90;;;;;;4907381;29;20643;-78
2023/01/26 13:33:58;;;;;;;18.97;17.20;;;1.10;99.90;;;;;;4887947;29;20450;-77
2023/01/26 13:36:27;;;;;;;18.37;16.87;;;1.00;99.90;;;;;;4891289;29;20216;-77
2023/01/26 13:38:59;;;;;;;20.10;18.17;;;1.00;99.90;;;;;;4893686;29;20540;-81
2023/01/26 13:41:28;;;;;;;20.90;19.07;;;1.00;99.90;;;;;;4882686;29;20968;-77
2023/01/26 13:43:59;;;;;;;19.93;18.03;;;1.00;99.90;;;;;;4889792;29;20505;-77
2023/01/26 13:46:31;;;;;;;20.03;18.20;;;1.00;99.90;;;;;;4888324;29;20972;-77
2023/01/26 13:48:58;;;;;;;20.37;18.57;;;1.10;99.90;;;;;;4907433;29;20986;-77
2023/01/26 13:51:27;;;;;;;19.83;18.03;;;1.10;99.90;;;;;;4883620;29;20503;-76
2023/01/26 13:54:02;;;;;;;20.03;18.13;;;1.20;99.90;;;;;;4893083;29;20499;-77
2023/01/26 13:56:32;;;;;;;19.47;17.67;;;1.20;99.90;;;;;;4887051;29;20469;-76
2023/01/26 13:59:11;;;;;;;20.43;18.47;;;1.10;99.90;;;;;;4894368;29;20457;-78
2023/01/26 14:01:43;;;;;;;20.90;18.83;;;1.00;99.90;;;;;;4878736;29;20528;-78
2023/01/26 14:04:14;;;;;;;20.83;18.63;;;1.00;99.90;;;;;;4889286;29;20445;-76
2023/01/26 14:06:45;;;;;;;19.93;18.23;;;1.00;99.90;;;;;;4881287;29;20454;-77
2023/01/26 14:09:15;;;;;;;21.17;19.10;;;1.10;99.90;;;;;;4879927;29;20574;-81
2023/01/26 14:11:43;;;;;;;21.00;19.03;;;1.00;99.90;;;;;;4888067;29;20524;-77
2023/01/26 14:14:23;;;;;;;21.90;19.80;;;1.00;99.90;;;;;;4895594;29;20468;-77
2023/01/26 14:16:50;;;;;;;21.00;19.00;;;1.00;99.90;;;;;;4891879;29;20588;-78
2023/01/26 14:19:19;;;;;;;22.80;19.97;;;1.00;99.90;;;;;;4892816;29;20476;-80
2023/01/26 14:21:49;;;;;;;22.73;20.37;;;1.00;99.90;;;;;;4886777;29;20495;-81
2023/01/26 14:24:16;;;;;;;22.97;20.57;;;1.00;99.90;;;;;;4886283;29;20449;-78
2023/01/26 14:26:44;;;;;;;23.80;20.87;;;1.00;99.90;;;;;;4886341;29;21038;-78
2023/01/26 14:29:13;;;;;;;21.53;19.33;;;1.10;99.90;;;;;;4901706;29;20946;-77
2023/01/26 14:31:40;;;;;;;22.80;20.40;;;1.00;99.90;;;;;;4891667;29;20468;-78
2023/01/26 14:34:10;;;;;;;21.17;19.23;;;0.90;99.90;;;;;;4886526;29;20449;-77
2023/01/26 14:36:38;;;;;;;21.50;19.40;;;0.90;99.90;;;;;;4890638;29;20477;-78
2023/01/26 14:39:16;;;;;;;23.67;21.30;;;1.00;99.90;;;;;;4887669;29;20461;-77
2023/01/26 14:41:46;;;;;;;21.80;19.67;;;0.90;99.90;;;;;;4891257;29;20870;-77
2023/01/26 14:44:13;;;;;;;21.73;19.63;;;0.90;99.90;;;;;;4889171;29;20454;-77
2023/01/26 14:46:50;;;;;;;21.90;19.70;;;0.90;99.90;;;;;;4889447;29;20530;-78
2023/01/26 14:49:20;;;;;;;21.90;19.70;;;0.90;99.90;;;;;;4886663;29;20205;-83
2023/01/26 14:51:53;;;;;;;22.03;19.83;;;0.90;99.90;;;;;;4888975;29;20520;-84
2023/01/26 14:54:27;;;;;;;21.90;19.70;;;0.90;99.90;;;;;;4889649;29;20513;-81
2023/01/26 14:56:55;;;;;;;25.33;20.03;;;0.80;99.90;;;;;;4889857;29;20564;-84
2023/01/26 14:59:25;;;;;;;21.53;19.53;;;0.80;99.90;;;;;;4886566;29;20215;-84
2023/01/26 15:02:03;;;;;;;22.93;20.53;;;0.80;99.90;;;;;;4890171;29;21104;-84
2023/01/26 15:04:36;;;;;;;23.27;20.30;;;0.80;99.90;;;;;;4904632;29;20453;-83
2023/01/26 15:07:21;;;;;;;21.67;19.50;;;0.70;99.90;;;;;;4874769;29;20461;-77
2023/01/26 15:09:52;;;;;;;20.47;18.37;;;0.80;99.90;;;;;;4874363;29;20495;-76
2023/01/26 15:12:20;;;;;;;21.50;19.50;;;0.80;99.90;;;;;;4883590;29;20517;-77
2023/01/26 15:14:50;;;;;;;21.43;19.23;;;0.80;99.90;;;;;;4889742;29;20457;-77
2023/01/26 15:17:38;;;;;;;20.57;18.60;;;0.70;99.90;;;;;;4888664;29;20481;-77
2023/01/26 15:20:26;;;;;;;19.63;17.80;;;0.70;99.90;;;;;;4887832;29;20444;-77
2023/01/26 15:22:53;;;;;;;21.00;19.00;;;0.70;99.90;;;;;;4888576;29;20475;-77
2023/01/26 15:25:24;;;;;;;21.07;19.07;;;0.80;99.90;;;;;;4886586;29;20541;-77
2023/01/26 15:27:54;;;;;;;20.67;18.67;;;0.90;99.90;;;;;;4875482;29;20577;-77
2023/01/26 15:30:25;;;;;;;21.30;19.43;;;0.80;99.90;;;;;;4878257;29;20459;-78
2023/01/26 15:32:52;;;;;;;20.37;18.37;;;0.80;99.90;;;;;;4877688;29;20464;-78
2023/01/26 15:35:22;;;;;;;21.33;19.33;;;0.80;99.90;;;;;;4876627;29;20988;-77
2023/01/26 15:37:58;;;;;;;19.90;17.83;;;0.70;99.90;;;;;;4878256;29;20926;-78
2023/01/26 15:40:25;;;;;;;19.80;18.00;;;0.60;99.90;;;;;;4885921;29;20670;-78
2023/01/26 15:43:05;;;;;;;20.30;18.40;;;0.70;99.90;;;;;;4893288;29;20462;-77
2023/01/26 15:45:35;;;;;;;20.70;18.53;;;0.70;99.90;;;;;;4879914;29;21054;-78
2023/01/26 15:48:02;;;;;;;20.17;18.17;;;0.70;99.90;;;;;;4887447;29;20444;-77
2023/01/26 15:50:29;;;;;;;20.07;18.07;;;0.70;99.90;;;;;;4896207;29;20461;-77
2023/01/26 15:52:55;;;;;;;19.87;18.07;;;0.70;99.90;;;;;;4901899;29;20454;-78
2023/01/26 15:55:27;;;;;;;19.83;18.20;;;0.70;99.90;;;;;;4892567;29;20471;-77
2023/01/26 15:57:54;;;;;;;20.27;18.27;;;0.70;99.90;;;;;;4886648;29;20930;-77
2023/01/26 16:00:23;;;;;;;22.07;19.87;;;0.70;99.90;;;;;;4892735;29;20461;-77
2023/01/26 16:02:50;;;;;;;20.60;18.53;;;0.70;99.90;;;;;;4886199;29;20450;-78
2023/01/26 16:05:20;;;;;;;20.17;18.17;;;0.70;99.90;;;;;;4903002;29;20488;-77
2023/01/26 16:07:49;;;;;;;19.83;18.03;;;0.80;99.90;;;;;;4892593;29;20468;-77
2023/01/26 16:10:16;;;;;;;20.60;18.67;;;0.80;99.90;;;;;;4891346;29;20546;-77
2023/01/26 16:12:43;;;;;;;21.97;19.67;;;0.70;99.90;;;;;;4907822;29;20502;-77
2023/01/26 16:15:37;;;;;;;21.40;19.20;;;0.70;99.90;;;;;;4891999;29;20941;-77
2023/01/26 16:18:04;;;;;;;20.93;18.97;;;0.60;99.90;;;;;;4893530;29;20535;-78
2023/01/26 16:20:31;;;;;;;20.90;18.90;;;0.70;99.90;;;;;;4890577;29;20483;-77
2023/01/26 16:22:58;;;;;;;20.73;18.77;;;0.70;99.90;;;;;;4894190;29;20448;-77
2023/01/26 16:25:27;;;;;;;21.30;19.33;;;0.70;99.90;;;;;;4893901;29;20441;-78
2023/01/26 16:27:56;;;;;;;21.33;19.30;;;0.60;99.90;;;;;;4893630;29;20447;-77
2023/01/26 16:30:23;;;;;;;21.37;19.20;;;0.60;99.90;;;;;;4890923;29;20465;-77
2023/01/26 16:32:52;;;;;;;22.03;19.90;;;0.70;99.90;;;;;;4895056;29;20451;-77
2023/01/26 16:35:21;;;;;;;23.07;20.07;;;0.70;99.90;;;;;;4890112;29;20508;-77
2023/01/26 16:37:48;;;;;;;22.80;20.57;;;0.70;99.90;;;;;;4893599;29;20487;-78
2023/01/26 16:40:17;;;;;;;23.60;21.20;;;0.70;99.90;;;;;;4890649;29;20522;-80